sensor_id;sensor_type;location;lat;lon;timestamp;pressure;altitude;pressure_sealevel;temperature;humidity
70217;BME280;57608;0.000;0.000;2022-07-01T00:01:46;99226.59;;;24.64;34.15
70217;BME280;57608;0.000;0.000;2022-07-01T00:04:13;99228.28;;;24.65;34.07
70217;BME280;57608;0.000;0.000;2022-07-01T00:06:38;99228.75;;;24.61;34.10
70217;BME280;57608;0.000;0.000;2022-07-01T00:09:04;99228.91;;;24.59;34.23
70217;BME280;57608;0.000;0.000;2022-07-01T00:11:30;99233.44;;;24.58;34.15
70217;BME280;57608;0.000;0.000;2022-07-01T00:13:58;99228.09;;;24.58;34.17
70217;BME280;57608;0.000;0.000;2022-07-01T00:16:24;99228.91;;;24.59;34.11
70217;BME280;57608;0.000;0.000;2022-07-01T00:18:49;99236.28;;;24.57;34.18
70217;BME280;57608;0.000;0.000;2022-07-01T00:21:15;99239.97;;;24.56;34.42
70217;BME280;57608;0.000;0.000;2022-07-01T00:23:41;99242.81;;;24.46;34.44
70217;BME280;57608;0.000;0.000;2022-07-01T00:26:07;99239.97;;;24.39;34.48
70217;BME280;57608;0.000;0.000;2022-07-01T00:28:32;99234.44;;;24.33;34.56
70217;BME280;57608;0.000;0.000;2022-07-01T00:30:58;99244.00;;;24.27;34.67
70217;BME280;57608;0.000;0.000;2022-07-01T00:33:23;99238.47;;;24.29;34.41
70217;BME280;57608;0.000;0.000;2022-07-01T00:35:49;99240.47;;;24.27;34.59
70217;BME280;57608;0.000;0.000;2022-07-01T00:38:14;99242.47;;;24.24;34.85
70217;BME280;57608;0.000;0.000;2022-07-01T00:40:40;99235.63;;;24.22;34.81
70217;BME280;57608;0.000;0.000;2022-07-01T00:43:05;99239.97;;;24.23;34.70
70217;BME280;57608;0.000;0.000;2022-07-01T00:45:30;99237.59;;;24.20;34.76
70217;BME280;57608;0.000;0.000;2022-07-01T00:47:56;99239.28;;;24.21;34.77
70217;BME280;57608;0.000;0.000;2022-07-01T00:50:22;99245.97;;;24.17;34.85
70217;BME280;57608;0.000;0.000;2022-07-01T00:52:48;99244.31;;;24.16;35.21
70217;BME280;57608;0.000;0.000;2022-07-01T00:55:15;99238.13;;;24.15;34.86
70217;BME280;57608;0.000;0.000;2022-07-01T00:57:42;99234.94;;;24.20;34.78
70217;BME280;57608;0.000;0.000;2022-07-01T01:00:10;99233.59;;;24.07;35.03
70217;BME280;57608;0.000;0.000;2022-07-01T01:02:36;99235.59;;;23.97;35.12
70217;BME280;57608;0.000;0.000;2022-07-01T01:05:06;99233.56;;;23.99;35.02
70217;BME280;57608;0.000;0.000;2022-07-01T01:07:32;99231.56;;;24.01;34.96
70217;BME280;57608;0.000;0.000;2022-07-01T01:10:02;99237.63;;;24.03;35.08
70217;BME280;57608;0.000;0.000;2022-07-01T01:12:28;99246.81;;;24.01;34.96
70217;BME280;57608;0.000;0.000;2022-07-01T01:14:55;99252.28;;;23.91;35.31
70217;BME280;57608;0.000;0.000;2022-07-01T01:17:21;99242.19;;;23.68;35.55
70217;BME280;57608;0.000;0.000;2022-07-01T01:19:48;99247.19;;;23.71;35.58
70217;BME280;57608;0.000;0.000;2022-07-01T01:22:14;99239.00;;;23.73;35.45
70217;BME280;57608;0.000;0.000;2022-07-01T01:24:42;99245.50;;;23.70;35.64
70217;BME280;57608;0.000;0.000;2022-07-01T01:27:08;99248.88;;;23.81;35.31
70217;BME280;57608;0.000;0.000;2022-07-01T01:29:39;99245.22;;;23.82;35.38
70217;BME280;57608;0.000;0.000;2022-07-01T01:32:06;99246.22;;;23.81;35.46
70217;BME280;57608;0.000;0.000;2022-07-01T01:34:36;99243.53;;;23.81;35.44
70217;BME280;57608;0.000;0.000;2022-07-01T01:37:05;99250.06;;;23.86;35.38
70217;BME280;57608;0.000;0.000;2022-07-01T01:39:31;99241.22;;;23.86;35.49
70217;BME280;57608;0.000;0.000;2022-07-01T01:41:57;99250.56;;;23.82;35.68
70217;BME280;57608;0.000;0.000;2022-07-01T01:44:23;99248.19;;;23.79;35.63
70217;BME280;57608;0.000;0.000;2022-07-01T01:46:50;99254.25;;;23.81;35.66
70217;BME280;57608;0.000;0.000;2022-07-01T01:49:16;99251.56;;;23.81;35.58
70217;BME280;57608;0.000;0.000;2022-07-01T01:51:41;99258.41;;;23.75;35.89
70217;BME280;57608;0.000;0.000;2022-07-01T01:54:07;99249.19;;;23.69;35.89
70217;BME280;57608;0.000;0.000;2022-07-01T01:56:33;99251.38;;;23.74;35.74
70217;BME280;57608;0.000;0.000;2022-07-01T01:58:58;99243.53;;;23.81;35.70
70217;BME280;57608;0.000;0.000;2022-07-01T02:01:24;99252.25;;;23.83;35.62
70217;BME280;57608;0.000;0.000;2022-07-01T02:03:51;99253.38;;;23.72;35.52
70217;BME280;57608;0.000;0.000;2022-07-01T02:06:19;99261.91;;;23.67;35.69
70217;BME280;57608;0.000;0.000;2022-07-01T02:08:44;99255.50;;;23.60;35.78
70217;BME280;57608;0.000;0.000;2022-07-01T02:11:10;99252.16;;;23.58;35.51
70217;BME280;57608;0.000;0.000;2022-07-01T02:13:37;99255.50;;;23.60;35.62
70217;BME280;57608;0.000;0.000;2022-07-01T02:16:03;99252.19;;;23.66;35.52
70217;BME280;57608;0.000;0.000;2022-07-01T02:18:30;99270.28;;;23.72;35.42
70217;BME280;57608;0.000;0.000;2022-07-01T02:20:56;99268.59;;;23.71;35.53
70217;BME280;57608;0.000;0.000;2022-07-01T02:23:21;99263.53;;;23.60;35.42
70217;BME280;57608;0.000;0.000;2022-07-01T02:25:47;99258.69;;;23.55;35.37
70217;BME280;57608;0.000;0.000;2022-07-01T02:28:13;99265.53;;;23.58;35.07
70217;BME280;57608;0.000;0.000;2022-07-01T02:30:38;99262.88;;;23.58;34.83
70217;BME280;57608;0.000;0.000;2022-07-01T02:33:07;99271.88;;;23.57;34.93
70217;BME280;57608;0.000;0.000;2022-07-01T02:35:34;99286.06;;;23.49;35.12
70217;BME280;57608;0.000;0.000;2022-07-01T02:38:00;99274.13;;;23.35;35.05
70217;BME280;57608;0.000;0.000;2022-07-01T02:40:26;99279.25;;;23.29;35.19
70217;BME280;57608;0.000;0.000;2022-07-01T02:42:52;99289.44;;;23.25;35.30
70217;BME280;57608;0.000;0.000;2022-07-01T02:45:17;99282.75;;;23.29;35.02
70217;BME280;57608;0.000;0.000;2022-07-01T02:47:43;99295.47;;;23.27;35.03
70217;BME280;57608;0.000;0.000;2022-07-01T02:50:11;99294.25;;;23.21;34.78
70217;BME280;57608;0.000;0.000;2022-07-01T02:52:38;99298.59;;;23.22;35.22
70217;BME280;57608;0.000;0.000;2022-07-01T02:55:05;99306.16;;;23.27;35.03
70217;BME280;57608;0.000;0.000;2022-07-01T02:57:32;99315.50;;;23.23;35.19
70217;BME280;57608;0.000;0.000;2022-07-01T02:59:57;99309.13;;;23.24;35.09
70217;BME280;57608;0.000;0.000;2022-07-01T03:02:23;99307.16;;;23.26;35.08
70217;BME280;57608;0.000;0.000;2022-07-01T03:04:51;99307.47;;;23.23;35.13
70217;BME280;57608;0.000;0.000;2022-07-01T03:07:17;99299.28;;;23.24;35.00
70217;BME280;57608;0.000;0.000;2022-07-01T03:09:43;99304.84;;;23.31;34.91
70217;BME280;57608;0.000;0.000;2022-07-01T03:12:10;99314.03;;;23.37;34.78
70217;BME280;57608;0.000;0.000;2022-07-01T03:17:19;99322.75;;;23.39;34.52
70217;BME280;57608;0.000;0.000;2022-07-01T03:19:46;99316.59;;;23.38;34.39
70217;BME280;57608;0.000;0.000;2022-07-01T03:22:11;99322.13;;;23.45;34.20
70217;BME280;57608;0.000;0.000;2022-07-01T03:24:37;99315.94;;;23.45;34.11
70217;BME280;57608;0.000;0.000;2022-07-01T03:27:04;99329.97;;;23.47;33.85
70217;BME280;57608;0.000;0.000;2022-07-01T03:29:30;99331.16;;;23.44;33.82
70217;BME280;57608;0.000;0.000;2022-07-01T03:31:56;99322.97;;;23.46;33.83
70217;BME280;57608;0.000;0.000;2022-07-01T03:34:21;99321.81;;;23.48;33.63
70217;BME280;57608;0.000;0.000;2022-07-01T03:36:49;99326.00;;;23.51;33.63
70217;BME280;57608;0.000;0.000;2022-07-01T03:39:15;99320.66;;;23.51;33.51
70217;BME280;57608;0.000;0.000;2022-07-01T03:41:41;99322.97;;;23.46;33.39
70217;BME280;57608;0.000;0.000;2022-07-01T03:44:06;99319.63;;;23.43;33.29
70217;BME280;57608;0.000;0.000;2022-07-01T03:46:32;99330.31;;;23.43;33.21
70217;BME280;57608;0.000;0.000;2022-07-01T03:48:58;99328.84;;;23.49;33.12
70217;BME280;57608;0.000;0.000;2022-07-01T03:51:23;99336.06;;;23.57;32.86
70217;BME280;57608;0.000;0.000;2022-07-01T03:53:51;99339.41;;;23.59;32.94
70217;BME280;57608;0.000;0.000;2022-07-01T03:56:35;99345.75;;;23.58;32.88
70217;BME280;57608;0.000;0.000;2022-07-01T03:59:01;99339.09;;;23.62;32.86
70217;BME280;57608;0.000;0.000;2022-07-01T04:01:26;99345.78;;;23.66;32.52
70217;BME280;57608;0.000;0.000;2022-07-01T04:03:52;99343.09;;;23.58;32.46
70217;BME280;57608;0.000;0.000;2022-07-01T04:06:18;99336.06;;;23.57;32.38
70217;BME280;57608;0.000;0.000;2022-07-01T04:08:44;99339.09;;;23.62;32.18
70217;BME280;57608;0.000;0.000;2022-07-01T04:11:11;99343.94;;;23.67;32.07
70217;BME280;57608;0.000;0.000;2022-07-01T04:13:37;99351.47;;;23.63;31.96
70217;BME280;57608;0.000;0.000;2022-07-01T04:16:02;99367.19;;;23.66;32.01
70217;BME280;57608;0.000;0.000;2022-07-01T04:18:29;99369.59;;;23.78;31.53
70217;BME280;57608;0.000;0.000;2022-07-01T04:20:54;99367.59;;;23.80;30.86
70217;BME280;57608;0.000;0.000;2022-07-01T04:23:39;99366.22;;;23.75;32.05
70217;BME280;57608;0.000;0.000;2022-07-01T04:26:04;99368.03;;;23.93;31.89
70217;BME280;57608;0.000;0.000;2022-07-01T04:28:31;99373.41;;;24.01;31.30
70217;BME280;57608;0.000;0.000;2022-07-01T04:30:56;99365.75;;;24.15;31.22
70217;BME280;57608;0.000;0.000;2022-07-01T04:33:23;99365.09;;;24.29;31.56
70217;BME280;57608;0.000;0.000;2022-07-01T04:35:48;99371.16;;;24.39;31.38
70217;BME280;57608;0.000;0.000;2022-07-01T04:38:14;99370.16;;;24.40;31.33
70217;BME280;57608;0.000;0.000;2022-07-01T04:40:39;99361.78;;;24.35;30.64
70217;BME280;57608;0.000;0.000;2022-07-01T04:43:05;99385.06;;;24.35;30.57
70217;BME280;57608;0.000;0.000;2022-07-01T04:45:30;99376.16;;;24.18;30.00
70217;BME280;57608;0.000;0.000;2022-07-01T04:47:56;99376.25;;;24.08;30.17
70217;BME280;57608;0.000;0.000;2022-07-01T04:50:21;99387.50;;;24.12;29.90
70217;BME280;57608;0.000;0.000;2022-07-01T04:52:47;99394.88;;;24.18;30.59
70217;BME280;57608;0.000;0.000;2022-07-01T04:55:13;99381.69;;;24.24;30.43
70217;BME280;57608;0.000;0.000;2022-07-01T04:57:38;99396.94;;;24.40;29.77
70217;BME280;57608;0.000;0.000;2022-07-01T05:00:04;99386.22;;;24.40;29.71
70217;BME280;57608;0.000;0.000;2022-07-01T05:02:29;99392.94;;;24.45;29.94
70217;BME280;57608;0.000;0.000;2022-07-01T05:04:55;99385.75;;;24.45;29.62
70217;BME280;57608;0.000;0.000;2022-07-01T05:07:20;99393.28;;;24.41;29.73
70217;BME280;57608;0.000;0.000;2022-07-01T05:09:56;99398.25;;;24.28;29.43
70217;BME280;57608;0.000;0.000;2022-07-01T05:12:22;99397.34;;;24.11;29.11
70217;BME280;57608;0.000;0.000;2022-07-01T05:14:49;99396.50;;;24.11;28.79
70217;BME280;57608;0.000;0.000;2022-07-01T05:17:15;99402.50;;;24.04;29.06
70217;BME280;57608;0.000;0.000;2022-07-01T05:19:40;99384.38;;;23.64;28.91
70217;BME280;57608;0.000;0.000;2022-07-01T05:22:25;99389.31;;;23.76;28.95
70217;BME280;57608;0.000;0.000;2022-07-01T05:24:50;99387.41;;;23.95;28.94
70217;BME280;57608;0.000;0.000;2022-07-01T05:27:16;99383.81;;;24.13;29.12
70217;BME280;57608;0.000;0.000;2022-07-01T05:29:41;99380.16;;;24.22;28.85
70217;BME280;57608;0.000;0.000;2022-07-01T05:32:07;99382.44;;;24.08;29.00
70217;BME280;57608;0.000;0.000;2022-07-01T05:34:32;99393.13;;;24.00;29.08
70217;BME280;57608;0.000;0.000;2022-07-01T05:36:58;99397.47;;;23.93;28.69
70217;BME280;57608;0.000;0.000;2022-07-01T05:39:23;99384.38;;;23.90;28.77
70217;BME280;57608;0.000;0.000;2022-07-01T05:41:50;99387.97;;;24.07;29.16
70217;BME280;57608;0.000;0.000;2022-07-01T05:44:16;99384.97;;;24.10;28.71
70217;BME280;57608;0.000;0.000;2022-07-01T05:46:42;99403.84;;;24.08;29.11
70217;BME280;57608;0.000;0.000;2022-07-01T05:49:07;99394.44;;;23.96;28.91
70217;BME280;57608;0.000;0.000;2022-07-01T05:51:33;99388.97;;;23.80;28.92
70217;BME280;57608;0.000;0.000;2022-07-01T05:53:58;99381.09;;;23.70;29.00
70217;BME280;57608;0.000;0.000;2022-07-01T05:56:24;99385.75;;;23.68;28.53
70217;BME280;57608;0.000;0.000;2022-07-01T05:58:51;99383.19;;;23.58;28.92
70217;BME280;57608;0.000;0.000;2022-07-01T06:01:16;99392.69;;;23.52;28.96
70217;BME280;57608;0.000;0.000;2022-07-01T06:03:42;99379.69;;;23.31;29.04
70217;BME280;57608;0.000;0.000;2022-07-01T06:06:07;99390.75;;;23.36;29.14
70217;BME280;57608;0.000;0.000;2022-07-01T06:08:33;99399.38;;;23.30;29.34
70217;BME280;57608;0.000;0.000;2022-07-01T06:10:59;99390.38;;;23.31;29.50
70217;BME280;57608;0.000;0.000;2022-07-01T06:13:24;99385.50;;;23.08;29.82
70217;BME280;57608;0.000;0.000;2022-07-01T06:15:50;99395.06;;;23.11;29.18
70217;BME280;57608;0.000;0.000;2022-07-01T06:18:16;99393.50;;;23.26;29.28
70217;BME280;57608;0.000;0.000;2022-07-01T06:20:41;99387.09;;;23.37;28.84
70217;BME280;57608;0.000;0.000;2022-07-01T06:23:07;99392.72;;;23.34;28.63
70217;BME280;57608;0.000;0.000;2022-07-01T06:25:32;99388.81;;;23.20;29.17
70217;BME280;57608;0.000;0.000;2022-07-01T06:27:58;99390.16;;;23.24;29.02
70217;BME280;57608;0.000;0.000;2022-07-01T06:30:23;99394.78;;;23.40;28.83
70217;BME280;57608;0.000;0.000;2022-07-01T06:32:49;99404.81;;;23.38;28.18
70217;BME280;57608;0.000;0.000;2022-07-01T06:35:14;99406.03;;;23.08;28.16
70217;BME280;57608;0.000;0.000;2022-07-01T06:37:40;99407.56;;;23.10;28.65
70217;BME280;57608;0.000;0.000;2022-07-01T06:40:06;99412.31;;;23.17;28.21
70217;BME280;57608;0.000;0.000;2022-07-01T06:42:32;99405.75;;;23.11;28.35
70217;BME280;57608;0.000;0.000;2022-07-01T06:44:58;99416.19;;;23.04;28.45
70217;BME280;57608;0.000;0.000;2022-07-01T06:47:24;99407.72;;;23.09;28.41
70217;BME280;57608;0.000;0.000;2022-07-01T06:49:50;99408.72;;;22.90;28.17
70217;BME280;57608;0.000;0.000;2022-07-01T06:52:15;99411.47;;;22.98;28.12
70217;BME280;57608;0.000;0.000;2022-07-01T06:54:41;99406.53;;;23.48;28.14
70217;BME280;57608;0.000;0.000;2022-07-01T06:57:06;99407.28;;;23.58;27.59
70217;BME280;57608;0.000;0.000;2022-07-01T06:59:32;99435.16;;;23.55;28.41
70217;BME280;57608;0.000;0.000;2022-07-01T07:01:58;99413.97;;;23.62;28.39
70217;BME280;57608;0.000;0.000;2022-07-01T07:04:24;99420.97;;;23.37;27.32
70217;BME280;57608;0.000;0.000;2022-07-01T07:06:49;99418.94;;;23.31;26.97
70217;BME280;57608;0.000;0.000;2022-07-01T07:09:17;99403.31;;;23.44;26.87
70217;BME280;57608;0.000;0.000;2022-07-01T07:11:43;99417.38;;;23.46;25.99
70217;BME280;57608;0.000;0.000;2022-07-01T07:14:08;99413.66;;;23.39;26.21
70217;BME280;57608;0.000;0.000;2022-07-01T07:16:34;99416.31;;;23.39;26.12
70217;BME280;57608;0.000;0.000;2022-07-01T07:18:59;99419.00;;;23.39;26.35
70217;BME280;57608;0.000;0.000;2022-07-01T07:21:25;99407.94;;;23.60;26.68
70217;BME280;57608;0.000;0.000;2022-07-01T07:23:50;99412.41;;;23.78;26.27
70217;BME280;57608;0.000;0.000;2022-07-01T07:26:16;99413.66;;;23.91;26.27
70217;BME280;57608;0.000;0.000;2022-07-01T07:28:41;99421.28;;;23.86;26.02
70217;BME280;57608;0.000;0.000;2022-07-01T07:31:07;99421.09;;;23.80;26.07
70217;BME280;57608;0.000;0.000;2022-07-01T07:33:32;99428.88;;;23.65;25.96
70217;BME280;57608;0.000;0.000;2022-07-01T07:35:58;99422.75;;;23.46;25.95
70217;BME280;57608;0.000;0.000;2022-07-01T07:38:26;99422.06;;;23.26;25.84
70217;BME280;57608;0.000;0.000;2022-07-01T07:40:51;99432.06;;;23.24;25.95
70217;BME280;57608;0.000;0.000;2022-07-01T07:43:17;99424.06;;;23.24;25.43
70217;BME280;57608;0.000;0.000;2022-07-01T07:45:42;99425.81;;;23.33;25.25
70217;BME280;57608;0.000;0.000;2022-07-01T07:48:07;99457.91;;;23.33;25.29
70217;BME280;57608;0.000;0.000;2022-07-01T07:50:35;99429.78;;;23.29;24.98
70217;BME280;57608;0.000;0.000;2022-07-01T07:53:00;99429.25;;;23.25;24.78
70217;BME280;57608;0.000;0.000;2022-07-01T07:55:25;99427.78;;;23.31;24.80
70217;BME280;57608;0.000;0.000;2022-07-01T07:57:53;99440.03;;;23.16;25.15
70217;BME280;57608;0.000;0.000;2022-07-01T08:00:19;99439.72;;;23.19;24.73
70217;BME280;57608;0.000;0.000;2022-07-01T08:02:44;99445.44;;;23.24;24.54
70217;BME280;57608;0.000;0.000;2022-07-01T08:05:10;99449.41;;;23.38;24.62
70217;BME280;57608;0.000;0.000;2022-07-01T08:07:41;99475.84;;;23.41;24.27
70217;BME280;57608;0.000;0.000;2022-07-01T08:10:09;99459.94;;;23.03;23.71
70217;BME280;57608;0.000;0.000;2022-07-01T08:12:35;99450.09;;;23.04;23.42
70217;BME280;57608;0.000;0.000;2022-07-01T08:15:01;99451.00;;;23.13;23.63
70217;BME280;57608;0.000;0.000;2022-07-01T08:17:26;99469.34;;;23.07;23.15
70217;BME280;57608;0.000;0.000;2022-07-01T08:19:52;99459.47;;;23.08;23.13
70217;BME280;57608;0.000;0.000;2022-07-01T08:22:17;99453.44;;;22.88;23.27
70217;BME280;57608;0.000;0.000;2022-07-01T08:24:43;99465.06;;;22.79;23.34
70217;BME280;57608;0.000;0.000;2022-07-01T08:27:08;99471.38;;;22.77;23.81
70217;BME280;57608;0.000;0.000;2022-07-01T08:29:34;99467.72;;;22.79;23.79
70217;BME280;57608;0.000;0.000;2022-07-01T08:32:00;99474.97;;;23.04;23.70
70217;BME280;57608;0.000;0.000;2022-07-01T08:34:25;99478.16;;;22.90;23.44
70217;BME280;57608;0.000;0.000;2022-07-01T08:36:51;99473.44;;;22.84;23.23
70217;BME280;57608;0.000;0.000;2022-07-01T08:39:17;99474.09;;;22.68;23.37
70217;BME280;57608;0.000;0.000;2022-07-01T08:41:42;99468.69;;;22.77;23.17
70217;BME280;57608;0.000;0.000;2022-07-01T08:44:09;99463.44;;;22.86;23.52
70217;BME280;57608;0.000;0.000;2022-07-01T08:46:35;99475.34;;;22.91;23.60
70217;BME280;57608;0.000;0.000;2022-07-01T08:49:01;99470.84;;;22.92;23.80
70217;BME280;57608;0.000;0.000;2022-07-01T08:51:27;99468.56;;;22.97;24.23
70217;BME280;57608;0.000;0.000;2022-07-01T08:53:53;99468.84;;;22.94;24.18
70217;BME280;57608;0.000;0.000;2022-07-01T08:56:18;99472.16;;;22.88;24.03
70217;BME280;57608;0.000;0.000;2022-07-01T08:59:02;99469.56;;;22.96;23.88
70217;BME280;57608;0.000;0.000;2022-07-01T09:01:28;99469.94;;;23.01;24.01
70217;BME280;57608;0.000;0.000;2022-07-01T09:03:55;99478.56;;;22.95;23.92
70217;BME280;57608;0.000;0.000;2022-07-01T09:06:28;99463.50;;;22.94;23.85
70217;BME280;57608;0.000;0.000;2022-07-01T09:09:09;99466.13;;;23.04;23.84
70217;BME280;57608;0.000;0.000;2022-07-01T09:11:35;99465.16;;;23.23;23.88
70217;BME280;57608;0.000;0.000;2022-07-01T09:14:06;99478.91;;;23.28;23.83
70217;BME280;57608;0.000;0.000;2022-07-01T09:16:51;99479.13;;;23.17;24.12
70217;BME280;57608;0.000;0.000;2022-07-01T09:19:19;99477.03;;;22.92;23.46
70217;BME280;57608;0.000;0.000;2022-07-01T09:21:53;99484.63;;;22.69;23.54
70217;BME280;57608;0.000;0.000;2022-07-01T09:27:03;99475.72;;;22.79;23.91
70217;BME280;57608;0.000;0.000;2022-07-01T09:29:39;99483.63;;;22.70;23.97
70217;BME280;57608;0.000;0.000;2022-07-01T09:32:08;99490.19;;;22.58;23.66
70217;BME280;57608;0.000;0.000;2022-07-01T09:34:36;99484.00;;;22.57;23.92
70217;BME280;57608;0.000;0.000;2022-07-01T09:37:05;99487.69;;;22.74;23.77
70217;BME280;57608;0.000;0.000;2022-07-01T09:39:41;99503.31;;;22.69;23.72
70217;BME280;57608;0.000;0.000;2022-07-01T09:42:07;99485.88;;;22.47;23.11
70217;BME280;57608;0.000;0.000;2022-07-01T09:44:33;99484.06;;;22.48;23.19
70217;BME280;57608;0.000;0.000;2022-07-01T09:46:58;99487.28;;;22.69;23.21
70217;BME280;57608;0.000;0.000;2022-07-01T09:49:26;99493.88;;;22.75;23.45
70217;BME280;57608;0.000;0.000;2022-07-01T09:51:52;99482.19;;;22.58;23.56
70217;BME280;57608;0.000;0.000;2022-07-01T09:54:18;99501.03;;;22.74;22.91
70217;BME280;57608;0.000;0.000;2022-07-01T09:56:44;99492.00;;;22.57;22.39
70217;BME280;57608;0.000;0.000;2022-07-01T09:59:10;99499.38;;;22.46;23.01
70217;BME280;57608;0.000;0.000;2022-07-01T10:01:40;99488.41;;;22.49;22.86
70217;BME280;57608;0.000;0.000;2022-07-01T10:04:07;99511.75;;;22.47;22.70
70217;BME280;57608;0.000;0.000;2022-07-01T10:09:43;99488.91;;;22.62;23.40
70217;BME280;57608;0.000;0.000;2022-07-01T10:12:18;99487.13;;;22.53;23.77
70217;BME280;57608;0.000;0.000;2022-07-01T10:14:53;99491.84;;;22.59;23.66
70217;BME280;57608;0.000;0.000;2022-07-01T10:17:35;99485.63;;;22.68;23.36
70217;BME280;57608;0.000;0.000;2022-07-01T10:20:24;99478.00;;;22.73;23.61
70217;BME280;57608;0.000;0.000;2022-07-01T10:22:53;99485.72;;;22.76;23.48
70217;BME280;57608;0.000;0.000;2022-07-01T10:25:43;99491.59;;;22.80;23.89
70217;BME280;57608;0.000;0.000;2022-07-01T10:33:44;99475.84;;;22.77;23.47
70217;BME280;57608;0.000;0.000;2022-07-01T10:44:18;99493.41;;;22.80;23.73
70217;BME280;57608;0.000;0.000;2022-07-01T10:46:46;99495.69;;;22.74;23.57
70217;BME280;57608;0.000;0.000;2022-07-01T10:49:17;99492.75;;;22.77;23.33
70217;BME280;57608;0.000;0.000;2022-07-01T10:51:57;99485.94;;;22.83;23.54
70217;BME280;57608;0.000;0.000;2022-07-01T10:57:20;99490.66;;;22.71;23.13
70217;BME280;57608;0.000;0.000;2022-07-01T11:00:16;99488.16;;;22.70;23.02
70217;BME280;57608;0.000;0.000;2022-07-01T11:02:41;99485.63;;;22.68;22.88
70217;BME280;57608;0.000;0.000;2022-07-01T11:05:14;99492.34;;;22.72;22.88
70217;BME280;57608;0.000;0.000;2022-07-01T11:07:42;99487.78;;;22.83;23.04
70217;BME280;57608;0.000;0.000;2022-07-01T11:10:11;99484.06;;;22.93;22.95
70217;BME280;57608;0.000;0.000;2022-07-01T11:12:37;99481.81;;;22.89;23.15
70217;BME280;57608;0.000;0.000;2022-07-01T11:15:04;99478.09;;;22.82;23.14
70217;BME280;57608;0.000;0.000;2022-07-01T11:17:33;99466.25;;;22.84;22.82
70217;BME280;57608;0.000;0.000;2022-07-01T11:20:00;99486.66;;;22.85;22.73
70217;BME280;57608;0.000;0.000;2022-07-01T11:22:32;99478.25;;;22.80;22.95
70217;BME280;57608;0.000;0.000;2022-07-01T11:25:00;99487.09;;;22.81;22.55
70217;BME280;57608;0.000;0.000;2022-07-01T11:27:27;99479.97;;;22.71;22.60
70217;BME280;57608;0.000;0.000;2022-07-01T11:29:56;99478.84;;;22.74;22.59
70217;BME280;57608;0.000;0.000;2022-07-01T11:34:51;99500.44;;;22.81;22.81
70217;BME280;57608;0.000;0.000;2022-07-01T11:37:16;99479.44;;;22.02;23.78
70217;BME280;57608;0.000;0.000;2022-07-01T11:40:08;99493.06;;;22.47;23.58
70217;BME280;57608;0.000;0.000;2022-07-01T11:42:35;99494.09;;;22.64;22.85
70217;BME280;57608;0.000;0.000;2022-07-01T11:45:01;99482.19;;;22.58;23.15
70217;BME280;57608;0.000;0.000;2022-07-01T11:47:28;99493.03;;;22.74;23.29
70217;BME280;57608;0.000;0.000;2022-07-01T11:49:55;99494.13;;;22.82;23.29
70217;BME280;57608;0.000;0.000;2022-07-01T11:52:21;99507.88;;;22.87;23.86
70217;BME280;57608;0.000;0.000;2022-07-01T11:54:50;99489.56;;;22.64;22.62
70217;BME280;57608;0.000;0.000;2022-07-01T11:57:21;99493.72;;;22.76;22.89
70217;BME280;57608;0.000;0.000;2022-07-01T11:59:53;99500.53;;;22.71;22.71
70217;BME280;57608;0.000;0.000;2022-07-01T12:02:21;99503.81;;;22.83;23.00
70217;BME280;57608;0.000;0.000;2022-07-01T12:04:47;99495.09;;;22.81;22.74
70217;BME280;57608;0.000;0.000;2022-07-01T12:07:14;99503.50;;;22.86;22.74
70217;BME280;57608;0.000;0.000;2022-07-01T12:09:40;99501.81;;;22.85;22.85
70217;BME280;57608;0.000;0.000;2022-07-01T12:12:06;99495.84;;;22.73;22.34
70217;BME280;57608;0.000;0.000;2022-07-01T12:14:34;99516.59;;;22.61;22.74
70217;BME280;57608;0.000;0.000;2022-07-01T12:17:07;99488.09;;;22.52;23.12
70217;BME280;57608;0.000;0.000;2022-07-01T12:19:50;99504.91;;;22.62;22.94
70217;BME280;57608;0.000;0.000;2022-07-01T12:22:18;99497.31;;;22.67;23.18
70217;BME280;57608;0.000;0.000;2022-07-01T12:24:48;99505.38;;;22.75;23.44
70217;BME280;57608;0.000;0.000;2022-07-01T12:27:14;99511.13;;;22.81;23.67
70217;BME280;57608;0.000;0.000;2022-07-01T12:32:05;99505.97;;;22.97;23.79
70217;BME280;57608;0.000;0.000;2022-07-01T12:34:42;99511.19;;;22.89;23.51
70217;BME280;57608;0.000;0.000;2022-07-01T12:39:56;99523.41;;;22.73;23.29
70217;BME280;57608;0.000;0.000;2022-07-01T12:44:53;99508.88;;;22.58;22.20
70217;BME280;57608;0.000;0.000;2022-07-01T12:47:34;99525.34;;;22.53;22.30
70217;BME280;57608;0.000;0.000;2022-07-01T12:50:19;99515.78;;;22.51;22.32
70217;BME280;57608;0.000;0.000;2022-07-01T12:53:04;99521.91;;;22.61;22.82
70217;BME280;57608;0.000;0.000;2022-07-01T12:58:03;99543.88;;;22.55;22.41
70217;BME280;57608;0.000;0.000;2022-07-01T13:00:30;99539.13;;;22.49;21.63
70217;BME280;57608;0.000;0.000;2022-07-01T13:03:00;99529.88;;;22.43;21.84
70217;BME280;57608;0.000;0.000;2022-07-01T13:05:28;99525.63;;;22.50;22.03
70217;BME280;57608;0.000;0.000;2022-07-01T13:07:54;99526.47;;;22.51;22.01
70217;BME280;57608;0.000;0.000;2022-07-01T13:10:20;99520.53;;;22.57;22.31
70217;BME280;57608;0.000;0.000;2022-07-01T13:12:46;99524.19;;;22.56;22.38
70217;BME280;57608;0.000;0.000;2022-07-01T13:15:15;99530.63;;;22.63;22.36
70217;BME280;57608;0.000;0.000;2022-07-01T13:17:41;99528.72;;;22.55;22.54
70217;BME280;57608;0.000;0.000;2022-07-01T13:20:08;99521.34;;;22.67;22.50
70217;BME280;57608;0.000;0.000;2022-07-01T13:22:34;99531.44;;;22.73;22.48
70217;BME280;57608;0.000;0.000;2022-07-01T13:25:01;99524.69;;;22.69;22.70
70217;BME280;57608;0.000;0.000;2022-07-01T13:27:26;99526.84;;;22.66;22.89
70217;BME280;57608;0.000;0.000;2022-07-01T13:29:52;99527.06;;;22.72;23.16
70217;BME280;57608;0.000;0.000;2022-07-01T13:32:18;99527.22;;;22.71;23.26
70217;BME280;57608;0.000;0.000;2022-07-01T13:34:43;99530.88;;;22.70;23.29
70217;BME280;57608;0.000;0.000;2022-07-01T13:37:09;99559.41;;;22.69;22.97
70217;BME280;57608;0.000;0.000;2022-07-01T13:39:35;99532.91;;;22.58;23.12
70217;BME280;57608;0.000;0.000;2022-07-01T13:42:00;99558.06;;;22.55;23.44
70217;BME280;57608;0.000;0.000;2022-07-01T13:44:26;99537.59;;;22.46;23.62
70217;BME280;57608;0.000;0.000;2022-07-01T13:46:51;99530.81;;;22.52;23.52
70217;BME280;57608;0.000;0.000;2022-07-01T13:49:17;99527.25;;;22.61;23.57